Time;durP1;ratioP1;P1;durP2;ratioP2;P2;SDS_P1;SDS_P2;PMS_P1;PMS_P2;Temp;Humidity;BMP_temperature;BMP_pressure;BME280_temperature;BME280_humidity;BME280_pressure;Samples;Min_cycle;Max_cycle;Signal;HPM_P1;HPM_P2
2022/07/06 00:03:11;;;;;;;8.40;4.47;;;563.20;2432.00;;;;;;5093762;28;20113;-70
2022/07/06 00:05:37;;;;;;;5.63;4.35;;;538.50;2406.40;;;;;;5093713;28;20430;-71
2022/07/06 00:08:03;;;;;;;5.28;4.00;;;538.50;2406.40;;;;;;5093460;28;20107;-70
2022/07/06 00:10:29;;;;;;;4.30;3.70;;;538.40;2406.40;;;;;;5092892;28;20128;-69
2022/07/06 00:12:55;;;;;;;5.22;3.83;;;538.40;2406.40;;;;;;5093810;28;20083;-71
2022/07/06 00:15:21;;;;;;;4.53;3.63;;;538.30;2406.40;;;;;;5093625;28;20411;-71
2022/07/06 00:17:46;;;;;;;6.13;3.80;;;538.20;2406.40;;;;;;5093512;28;20421;-70
2022/07/06 00:20:12;;;;;;;4.65;3.65;;;538.20;2406.40;;;;;;5093342;28;20118;-71
2022/07/06 00:22:38;;;;;;;5.07;3.83;;;538.30;2406.40;;;;;;5093481;28;20099;-70
2022/07/06 00:25:04;;;;;;;3.95;3.20;;;538.30;2406.40;;;;;;5093541;28;20028;-70
2022/07/06 00:27:30;;;;;;;4.25;3.85;;;538.30;2406.40;;;;;;5093390;28;20031;-70
2022/07/06 00:29:56;;;;;;;5.70;3.72;;;538.30;2406.40;;;;;;5093221;28;20032;-70
2022/07/06 00:32:22;;;;;;;5.28;4.10;;;538.20;2406.40;;;;;;5093319;28;20407;-70
2022/07/06 00:34:48;;;;;;;7.63;3.55;;;538.20;2406.40;;;;;;5093166;28;20027;-71
2022/07/06 00:37:15;;;;;;;3.80;3.40;;;538.20;2406.40;;;;;;5093357;28;20024;-70
2022/07/06 00:39:41;;;;;;;7.07;3.30;;;538.20;2406.40;;;;;;5093175;28;20035;-71
2022/07/06 00:42:07;;;;;;;5.45;3.42;;;538.10;2406.40;;;;;;5093104;28;20086;-70
2022/07/06 00:44:33;;;;;;;4.18;3.60;;;538.10;2406.40;;;;;;5093200;28;20042;-71
2022/07/06 00:46:59;;;;;;;5.45;3.65;;;538.00;2406.40;;;;;;5093201;28;20020;-70
2022/07/06 00:52:11;;;;;;;3.58;3.17;;;538.00;2406.40;;;;;;5093437;28;20066;-70
2022/07/06 00:54:39;;;;;;;5.07;3.45;;;538.00;2406.40;;;;;;5093127;28;20024;-72
2022/07/06 00:57:05;;;;;;;4.38;3.28;;;537.90;2406.40;;;;;;5091751;28;20527;-70
2022/07/06 00:59:31;;;;;;;4.20;3.72;;;537.90;2406.40;;;;;;5093055;28;20085;-72
2022/07/06 01:01:58;;;;;;;3.83;3.38;;;537.90;2406.40;;;;;;5093003;28;20472;-71
2022/07/06 01:04:24;;;;;;;3.97;3.20;;;537.90;2406.40;;;;;;5092980;28;20545;-70
2022/07/06 01:06:50;;;;;;;6.30;3.38;;;537.90;2406.40;;;;;;5092884;28;20110;-70
2022/07/06 01:09:17;;;;;;;3.80;3.20;;;537.90;2406.40;;;;;;5092578;28;20400;-70
2022/07/06 01:11:43;;;;;;;7.35;3.20;;;537.80;2406.40;;;;;;5091561;28;20024;-70
2022/07/06 01:14:09;;;;;;;3.97;3.58;;;537.80;2406.40;;;;;;5092886;28;20020;-70
2022/07/06 01:16:36;;;;;;;3.75;3.00;;;537.80;2406.40;;;;;;5093498;28;20437;-70
2022/07/06 01:19:02;;;;;;;4.10;3.60;;;537.80;2406.40;;;;;;5096864;28;20028;-71
2022/07/06 01:21:28;;;;;;;4.25;3.38;;;537.80;2406.40;;;;;;5096684;28;20489;-70
2022/07/06 01:23:54;;;;;;;7.47;3.63;;;537.70;2406.40;;;;;;5096724;28;20480;-70
2022/07/06 01:26:21;;;;;;;4.30;3.00;;;537.70;2406.40;;;;;;5096354;28;20024;-70
2022/07/06 01:28:50;;;;;;;6.75;3.50;;;537.60;2406.40;;;;;;5096237;28;20480;-71
2022/07/06 01:31:20;;;;;;;5.28;3.60;;;537.60;2406.40;;;;;;5096228;28;20031;-70
2022/07/06 01:33:46;;;;;;;4.20;3.20;;;537.60;2406.40;;;;;;5096344;28;20519;-70
2022/07/06 01:36:12;;;;;;;5.15;3.25;;;537.60;2406.40;;;;;;5096402;28;20036;-71
2022/07/06 01:38:58;;;;;;;6.03;3.30;;;512.90;2380.80;;;;;;5096267;28;20016;-70
2022/07/06 01:41:24;;;;;;;5.03;3.67;;;512.90;2380.80;;;;;;5096029;28;20032;-70
2022/07/06 01:43:50;;;;;;;4.88;3.47;;;512.90;2380.80;;;;;;5096020;28;20024;-71
2022/07/06 01:46:17;;;;;;;5.25;3.45;;;512.90;2380.80;;;;;;5094803;28;20034;-70
2022/07/06 01:48:42;;;;;;;7.05;3.90;;;512.90;2380.80;;;;;;5095904;28;20472;-70
2022/07/06 01:51:08;;;;;;;4.32;3.30;;;512.80;2380.80;;;;;;5095808;28;20031;-70
2022/07/06 01:53:35;;;;;;;3.60;3.30;;;512.80;2380.80;;;;;;5095754;28;20020;-71
2022/07/06 01:56:01;;;;;;;4.13;3.33;;;512.70;2380.80;;;;;;5095832;28;20405;-71
2022/07/06 01:58:27;;;;;;;10.93;3.78;;;512.70;2380.80;;;;;;5095833;28;20073;-70
2022/07/06 02:00:53;;;;;;;4.10;3.53;;;512.60;2380.80;;;;;;5096037;28;20067;-69
2022/07/06 02:03:19;;;;;;;4.05;3.65;;;512.50;2380.80;;;;;;5095740;28;20024;-70
2022/07/06 02:05:44;;;;;;;4.80;4.30;;;512.50;2380.80;;;;;;5095588;28;20457;-70
2022/07/06 02:08:10;;;;;;;4.25;3.85;;;512.40;2380.80;;;;;;5095692;28;20032;-70
2022/07/06 02:10:36;;;;;;;4.03;3.63;;;512.30;2380.80;;;;;;5095266;28;20487;-72
2022/07/06 02:13:02;;;;;;;4.40;3.83;;;512.30;2380.80;;;;;;5095563;28;20540;-71
2022/07/06 02:15:28;;;;;;;5.78;4.03;;;512.30;2380.80;;;;;;5095289;28;20032;-70
2022/07/06 02:17:54;;;;;;;5.10;3.88;;;512.30;2380.80;;;;;;5095787;28;20103;-70
2022/07/06 02:20:19;;;;;;;5.05;4.20;;;512.30;2380.80;;;;;;5095550;28;20495;-72
2022/07/06 02:22:45;;;;;;;4.75;4.25;;;512.20;2380.80;;;;;;5095609;28;20422;-71
2022/07/06 02:25:11;;;;;;;4.55;4.00;;;512.20;2380.80;;;;;;5095198;28;20028;-70
2022/07/06 02:27:37;;;;;;;4.53;3.85;;;512.30;2380.80;;;;;;5095154;28;20385;-71
2022/07/06 02:30:05;;;;;;;5.32;4.35;;;512.20;2380.80;;;;;;5095160;28;20036;-72
2022/07/06 02:32:31;;;;;;;5.32;4.22;;;512.20;2380.80;;;;;;5095014;28;20016;-70
2022/07/06 02:34:57;;;;;;;4.65;4.25;;;512.10;2380.80;;;;;;5095145;28;20103;-71
2022/07/06 02:37:23;;;;;;;6.28;4.30;;;512.20;2380.80;;;;;;5095170;28;20050;-69
2022/07/06 02:39:49;;;;;;;4.85;4.10;;;512.10;2380.80;;;;;;5095005;28;20024;-70
2022/07/06 02:42:15;;;;;;;4.60;4.13;;;512.10;2380.80;;;;;;5095001;28;20024;-70
2022/07/06 02:44:40;;;;;;;5.88;4.75;;;512.00;2380.80;;;;;;5094942;28;20028;-70
2022/07/06 02:47:06;;;;;;;4.68;4.25;;;512.00;2380.80;;;;;;5094885;28;20016;-70
2022/07/06 02:49:32;;;;;;;4.78;4.25;;;512.00;2380.80;;;;;;5093523;28;20440;-71
2022/07/06 02:51:58;;;;;;;5.22;4.72;;;487.30;2380.80;;;;;;5094703;28;20487;-70
2022/07/06 02:54:24;;;;;;;7.38;4.75;;;487.20;2380.80;;;;;;5094829;28;20030;-70
2022/07/06 02:56:52;;;;;;;5.20;4.22;;;487.20;2380.80;;;;;;5094550;28;20020;-70
2022/07/06 02:59:19;;;;;;;5.28;4.55;;;487.20;2380.80;;;;;;5094717;28;20077;-70
2022/07/06 03:01:46;;;;;;;6.57;4.88;;;487.10;2380.80;;;;;;5094643;28;20024;-70
2022/07/06 03:04:12;;;;;;;5.65;4.70;;;487.10;2380.80;;;;;;5094846;28;20103;-70
2022/07/06 03:06:37;;;;;;;5.25;4.53;;;487.10;2380.80;;;;;;5094402;28;20149;-71
2022/07/06 03:09:03;;;;;;;6.03;5.25;;;487.10;2380.80;;;;;;5094238;28;20123;-69
2022/07/06 03:11:29;;;;;;;6.88;4.85;;;487.10;2380.80;;;;;;5094504;28;20519;-70
2022/07/06 03:13:55;;;;;;;6.53;4.68;;;487.10;2380.80;;;;;;5094478;28;20376;-70
2022/07/06 03:16:21;;;;;;;5.65;5.05;;;486.90;2380.80;;;;;;5094146;28;20026;-70
2022/07/06 03:18:47;;;;;;;6.55;5.63;;;486.90;2380.80;;;;;;5094269;28;20130;-70
2022/07/06 03:21:13;;;;;;;5.45;4.93;;;486.90;2380.80;;;;;;5094167;28;20024;-69
2022/07/06 03:23:38;;;;;;;6.30;5.45;;;486.90;2380.80;;;;;;5094278;28;20016;-69
2022/07/06 03:26:04;;;;;;;8.50;5.00;;;486.90;2380.80;;;;;;5094092;28;20099;-72
2022/07/06 03:28:30;;;;;;;5.88;5.28;;;486.90;2380.80;;;;;;5094142;28;20469;-71
2022/07/06 03:30:56;;;;;;;6.90;5.05;;;486.90;2380.80;;;;;;5093903;28;20089;-70
2022/07/06 03:33:22;;;;;;;5.80;5.20;;;486.90;2380.80;;;;;;5094083;28;20024;-69
2022/07/06 03:35:48;;;;;;;8.13;5.07;;;486.80;2380.80;;;;;;5092573;28;20060;-71
2022/07/06 03:38:13;;;;;;;6.63;5.20;;;486.90;2380.80;;;;;;5094048;28;20031;-70
2022/07/06 03:40:39;;;;;;;5.72;5.15;;;486.90;2380.80;;;;;;5093388;28;20024;-70
2022/07/06 03:43:05;;;;;;;6.40;5.28;;;486.90;2380.80;;;;;;5094004;28;20376;-71
2022/07/06 03:45:31;;;;;;;8.40;5.60;;;486.90;2380.80;;;;;;5093904;28;20032;-70
2022/07/06 03:47:57;;;;;;;16.38;9.60;;;487.00;2380.80;;;;;;5093690;28;20020;-70
2022/07/06 03:50:23;;;;;;;11.23;7.53;;;487.00;2380.80;;;;;;5093755;28;20119;-70
2022/07/06 03:52:49;;;;;;;8.43;6.10;;;487.10;2380.80;;;;;;5093640;28;20020;-70
2022/07/06 03:55:14;;;;;;;9.73;6.45;;;487.10;2380.80;;;;;;5093720;28;20031;-70
2022/07/06 03:57:40;;;;;;;15.35;6.93;;;487.10;2380.80;;;;;;5093601;28;20020;-70
2022/07/06 04:00:08;;;;;;;12.23;6.55;;;487.20;2380.80;;;;;;5093633;28;20091;-72
2022/07/06 04:02:34;;;;;;;6.60;5.88;;;487.20;2380.80;;;;;;5093570;28;20023;-71
2022/07/06 04:05:00;;;;;;;16.92;10.20;;;487.20;2380.80;;;;;;5094098;28;20468;-72
2022/07/06 04:07:26;;;;;;;11.63;7.65;;;487.20;2380.80;;;;;;5093918;28;20028;-71
2022/07/06 04:09:52;;;;;;;8.70;6.63;;;487.20;2380.80;;;;;;5093198;28;20112;-71
2022/07/06 04:12:18;;;;;;;10.43;6.45;;;487.10;2380.80;;;;;;5093468;28;20016;-71
2022/07/06 04:14:44;;;;;;;7.82;6.20;;;487.10;2380.80;;;;;;5093585;28;20027;-71
2022/07/06 04:19:54;;;;;;;6.57;5.97;;;487.10;2380.80;;;;;;5093688;28;20038;-71
2022/07/06 04:22:20;;;;;;;7.35;6.00;;;487.20;2380.80;;;;;;5093346;28;20016;-69
2022/07/06 04:24:46;;;;;;;7.32;5.38;;;487.20;2380.80;;;;;;5093602;28;20024;-70
2022/07/06 04:27:12;;;;;;;8.13;5.25;;;487.30;2380.80;;;;;;5093391;28;20028;-70
2022/07/06 04:29:38;;;;;;;7.75;5.20;;;512.00;2380.80;;;;;;5093139;28;20040;-73
2022/07/06 04:32:04;;;;;;;5.32;4.82;;;512.00;2380.80;;;;;;5093381;28;20103;-71
2022/07/06 04:34:30;;;;;;;6.80;4.95;;;512.20;2380.80;;;;;;5093266;28;20038;-70
2022/07/06 04:36:56;;;;;;;6.35;4.90;;;512.40;2380.80;;;;;;5093228;28;20488;-70
2022/07/06 04:39:21;;;;;;;8.23;5.38;;;512.70;2380.80;;;;;;5093102;28;20077;-71
2022/07/06 04:41:47;;;;;;;5.68;5.10;;;512.80;2380.80;;;;;;5093219;28;20051;-71
2022/07/06 04:44:13;;;;;;;5.80;4.53;;;537.60;2406.40;;;;;;5093331;28;20427;-71
2022/07/06 04:46:39;;;;;;;7.97;4.50;;;537.80;2406.40;;;;;;5093189;28;20489;-70
2022/07/06 04:49:05;;;;;;;6.55;4.05;;;537.90;2406.40;;;;;;5093084;28;20024;-71
2022/07/06 04:51:31;;;;;;;5.93;4.45;;;538.00;2406.40;;;;;;5093810;28;20024;-70
2022/07/06 04:53:56;;;;;;;7.93;4.60;;;538.20;2406.40;;;;;;5097086;28;20023;-71
2022/07/06 04:56:22;;;;;;;9.00;5.22;;;538.30;2406.40;;;;;;5095767;28;20105;-72
2022/07/06 04:58:48;;;;;;;5.60;4.28;;;538.20;2406.40;;;;;;5096915;28;20023;-70
2022/07/06 05:01:14;;;;;;;5.43;4.32;;;538.10;2406.40;;;;;;5096933;28;20043;-70
2022/07/06 05:03:40;;;;;;;5.30;4.28;;;538.40;2406.40;;;;;;5096566;28;20114;-71
2022/07/06 05:06:07;;;;;;;9.68;4.75;;;538.40;2406.40;;;;;;5096562;28;20028;-70
2022/07/06 05:08:33;;;;;;;4.97;4.10;;;538.50;2406.40;;;;;;5096219;28;20495;-71
2022/07/06 05:10:59;;;;;;;5.40;3.83;;;563.40;2432.00;;;;;;5096656;28;20036;-72
2022/07/06 05:13:25;;;;;;;7.03;4.43;;;563.20;2432.00;;;;;;5096569;28;20388;-72
2022/07/06 05:15:51;;;;;;;4.90;3.78;;;563.40;2432.00;;;;;;5096452;28;20023;-71
2022/07/06 05:18:17;;;;;;;6.90;3.95;;;563.20;2432.00;;;;;;5095821;28;20031;-70
2022/07/06 05:20:44;;;;;;;4.93;3.58;;;563.30;2432.00;;;;;;5096431;28;20020;-71
2022/07/06 05:23:10;;;;;;;5.45;3.63;;;563.40;2432.00;;;;;;5096368;28;20067;-72
2022/07/06 05:25:36;;;;;;;4.85;3.38;;;563.40;2432.00;;;;;;5095255;28;20052;-70
2022/07/06 05:28:03;;;;;;;7.82;3.53;;;563.20;2432.00;;;;;;5096562;28;20473;-71
2022/07/06 05:30:29;;;;;;;6.93;3.60;;;563.20;2432.00;;;;;;5096238;28;20044;-69
2022/07/06 05:32:54;;;;;;;4.28;3.28;;;563.30;2432.00;;;;;;5094560;28;20020;-73
2022/07/06 05:35:20;;;;;;;4.43;3.33;;;563.20;2432.00;;;;;;5095918;28;20036;-71
2022/07/06 05:37:46;;;;;;;4.35;3.08;;;563.20;2432.00;;;;;;5095844;28;20047;-70
2022/07/06 05:40:12;;;;;;;11.30;3.30;;;563.20;2432.00;;;;;;5095722;28;20107;-70
2022/07/06 05:42:38;;;;;;;4.45;2.90;;;563.20;2432.00;;;;;;5095219;28;20090;-72
2022/07/06 05:45:05;;;;;;;5.88;3.38;;;563.40;2432.00;;;;;;5095882;28;20032;-70
2022/07/06 05:50:15;;;;;;;5.90;2.72;;;563.30;2432.00;;;;;;5095890;28;20031;-71
2022/07/06 05:52:43;;;;;;;7.55;3.28;;;563.30;2432.00;;;;;;5095798;28;20024;-71
2022/07/06 05:55:10;;;;;;;6.13;3.50;;;563.40;2432.00;;;;;;5095662;28;20534;-72
2022/07/06 05:57:36;;;;;;;5.03;3.30;;;563.40;2432.00;;;;;;5095685;28;20025;-69
2022/07/06 06:00:05;;;;;;;5.45;3.30;;;563.40;2432.00;;;;;;5095675;28;20036;-72
2022/07/06 06:02:41;;;;;;;4.38;3.33;;;563.50;2432.00;;;;;;5093775;28;20081;-74
2022/07/06 06:05:11;;;;;;;6.80;3.17;;;563.60;2432.00;;;;;;5093821;28;20426;-72
2022/07/06 06:07:40;;;;;;;4.70;3.00;;;563.60;2432.00;;;;;;5093664;28;20519;-70
2022/07/06 06:10:08;;;;;;;4.13;2.70;;;563.70;2432.00;;;;;;5092135;28;20044;-72
2022/07/06 06:12:35;;;;;;;5.47;2.58;;;563.70;2432.00;;;;;;5095191;28;20103;-71
2022/07/06 06:15:01;;;;;;;5.22;3.15;;;563.70;2432.00;;;;;;5095402;28;20028;-71
2022/07/06 06:17:27;;;;;;;5.07;2.95;;;563.80;2432.00;;;;;;5094782;28;20507;-71
2022/07/06 06:19:53;;;;;;;4.72;2.97;;;563.80;2432.00;;;;;;5094832;28;20035;-71
2022/07/06 06:22:19;;;;;;;4.15;2.70;;;563.70;2432.00;;;;;;5094786;28;20099;-71
2022/07/06 06:24:45;;;;;;;3.78;2.58;;;563.80;2432.00;;;;;;5094873;28;20569;-71
2022/07/06 06:27:11;;;;;;;7.03;2.70;;;563.80;2432.00;;;;;;5095179;28;20027;-71
2022/07/06 06:29:37;;;;;;;4.38;2.63;;;564.00;2432.00;;;;;;5093607;28;20032;-71
2022/07/06 06:32:05;;;;;;;3.72;2.30;;;564.00;2432.00;;;;;;5095002;28;20020;-72
2022/07/06 06:34:31;;;;;;;6.78;2.60;;;588.80;2432.00;;;;;;5094841;28;20020;-70
2022/07/06 06:36:57;;;;;;;3.45;2.00;;;588.80;2432.00;;;;;;5094941;28;20070;-72
2022/07/06 06:39:23;;;;;;;7.65;2.60;;;588.80;2432.00;;;;;;5094897;28;20021;-71
2022/07/06 06:41:49;;;;;;;4.68;2.60;;;588.90;2432.00;;;;;;5094765;28;20032;-71
2022/07/06 06:44:15;;;;;;;7.32;2.63;;;589.00;2432.00;;;;;;5094724;28;20028;-72
2022/07/06 06:46:41;;;;;;;3.97;2.22;;;589.10;2432.00;;;;;;5094624;28;20028;-70
2022/07/06 06:49:07;;;;;;;4.30;2.25;;;589.20;2432.00;;;;;;5094194;28;20016;-73
2022/07/06 06:51:33;;;;;;;6.35;2.10;;;589.30;2432.00;;;;;;5094721;28;20024;-70
2022/07/06 06:53:59;;;;;;;2.78;2.10;;;589.40;2432.00;;;;;;5094595;28;20081;-70
2022/07/06 06:56:25;;;;;;;12.60;5.95;;;589.50;2432.00;;;;;;5094915;28;20473;-72
2022/07/06 06:58:51;;;;;;;9.57;5.10;;;589.70;2432.00;;;;;;5094323;28;20468;-71
2022/07/06 07:01:17;;;;;;;7.75;4.15;;;589.70;2432.00;;;;;;5092527;28;20114;-70
2022/07/06 07:03:42;;;;;;;3.70;2.47;;;614.40;2432.00;;;;;;5089708;28;20028;-71
2022/07/06 07:06:08;;;;;;;5.13;2.47;;;614.40;2432.00;;;;;;5092926;28;20024;-71
2022/07/06 07:08:34;;;;;;;4.47;2.47;;;614.40;2432.00;;;;;;5093483;28;20372;-73
2022/07/06 07:11:00;;;;;;;5.40;2.40;;;614.50;2432.00;;;;;;5094348;28;20036;-71
2022/07/06 07:13:26;;;;;;;5.47;2.42;;;614.50;2432.00;;;;;;5093281;28;20074;-72
2022/07/06 07:15:52;;;;;;;4.13;2.10;;;614.60;2432.00;;;;;;5092648;28;20024;-71
2022/07/06 07:18:18;;;;;;;3.13;1.98;;;614.80;2432.00;;;;;;5092669;28;20022;-71
2022/07/06 07:20:43;;;;;;;3.20;2.00;;;614.90;2432.00;;;;;;5092879;28;20020;-72
2022/07/06 07:23:09;;;;;;;3.45;2.60;;;615.30;2432.00;;;;;;5092062;28;20123;-73
2022/07/06 07:25:38;;;;;;;7.88;2.50;;;640.10;2406.40;;;;;;5092083;28;20424;-73
2022/07/06 07:28:04;;;;;;;3.30;1.90;;;640.10;2406.40;;;;;;5090618;28;20048;-70
2022/07/06 07:30:30;;;;;;;3.25;1.83;;;640.30;2355.20;;;;;;5091318;28;20070;-72
2022/07/06 07:32:56;;;;;;;3.40;2.15;;;640.10;2329.60;;;;;;5090948;28;20016;-72
2022/07/06 07:35:24;;;;;;;4.82;2.85;;;640.40;2329.60;;;;;;5092813;28;20101;-72
2022/07/06 07:37:52;;;;;;;6.28;2.65;;;640.80;2278.40;;;;;;5092270;28;20020;-72
2022/07/06 07:40:22;;;;;;;2.83;1.88;;;640.70;2252.80;;;;;;5091336;28;20111;-71
2022/07/06 07:42:53;;;;;;;5.15;2.20;;;665.60;2252.80;;;;;;5091624;28;20027;-72
2022/07/06 07:45:20;;;;;;;6.38;1.98;;;640.80;2227.20;;;;;;5091852;28;20415;-72
2022/07/06 07:47:49;;;;;;;9.27;3.50;;;666.30;2176.00;;;;;;5092819;28;20057;-72
2022/07/06 07:50:15;;;;;;;5.55;2.65;;;691.20;2150.40;;;;;;5092327;28;20056;-72
2022/07/06 07:52:41;;;;;;;5.65;1.90;;;692.00;2073.60;;;;;;5092502;28;20043;-74
2022/07/06 07:55:09;;;;;;;5.75;1.75;;;691.20;2099.20;;;;;;5093352;28;20012;-73
2022/07/06 07:57:36;;;;;;;9.95;2.00;;;716.80;2048.00;;;;;;5058452;28;20032;-72
2022/07/06 08:00:06;;;;;;;9.45;2.33;;;717.00;1996.80;;;;;;5090699;28;20028;-72
2022/07/06 08:02:33;;;;;;;4.65;1.67;;;717.40;1945.60;;;;;;5087194;28;20108;-74
2022/07/06 08:05:02;;;;;;;5.55;2.05;;;717.20;1971.20;;;;;;5091733;28;20016;-72
2022/07/06 08:07:28;;;;;;;6.38;2.15;;;717.60;1894.40;;;;;;5090561;28;20024;-72
2022/07/06 08:09:58;;;;;;;3.58;2.00;;;717.30;1920.00;;;;;;5089841;28;20059;-73
2022/07/06 08:12:26;;;;;;;5.55;1.65;;;742.50;1894.40;;;;;;5091441;28;20027;-72
2022/07/06 08:14:53;;;;;;;7.07;1.73;;;768.00;1792.00;;;;;;5092229;28;20480;-71
2022/07/06 08:17:19;;;;;;;4.15;1.80;;;768.70;1715.20;;;;;;5091877;28;20028;-72
2022/07/06 08:19:46;;;;;;;5.05;2.15;;;793.60;1715.20;;;;;;5090262;28;20442;-73
2022/07/06 08:22:13;;;;;;;7.95;2.60;;;793.80;1715.20;;;;;;5071584;28;20028;-74
2022/07/06 08:24:39;;;;;;;7.13;2.05;;;819.50;1587.20;;;;;;5072008;28;20039;-72
2022/07/06 08:27:04;;;;;;;4.35;2.72;;;845.20;1561.60;;;;;;5075391;28;20024;-73
2022/07/06 08:29:31;;;;;;;5.43;4.32;;;845.70;1484.80;;;;;;5081264;28;20594;-73
